sensor_id;sensor_type;location;lat;lon;timestamp;pressure;altitude;pressure_sealevel;temperature;humidity
65758;BME280;52495;52.208;5.158;2023-07-20T00:00:08;101378.06;;;16.76;89.80
65758;BME280;52495;52.208;5.158;2023-07-20T00:02:41;101385.06;;;16.76;90.17
65758;BME280;52495;52.208;5.158;2023-07-20T00:05:07;101389.53;;;16.72;90.02
65758;BME280;52495;52.208;5.158;2023-07-20T00:07:34;101381.00;;;16.67;90.71
65758;BME280;52495;52.208;5.158;2023-07-20T00:10:01;101386.06;;;16.72;90.41
65758;BME280;52495;52.208;5.158;2023-07-20T00:12:29;101384.63;;;16.63;90.30
65758;BME280;52495;52.208;5.158;2023-07-20T00:14:56;101387.22;;;16.63;90.20
65758;BME280;52495;52.208;5.158;2023-07-20T00:17:23;101383.16;;;16.56;90.78
65758;BME280;52495;52.208;5.158;2023-07-20T00:19:50;101386.53;;;16.58;90.78
65758;BME280;52495;52.208;5.158;2023-07-20T00:22:17;101386.38;;;16.62;90.27
65758;BME280;52495;52.208;5.158;2023-07-20T00:24:43;101391.22;;;16.48;90.99
65758;BME280;52495;52.208;5.158;2023-07-20T00:27:10;101387.75;;;16.47;91.16
65758;BME280;52495;52.208;5.158;2023-07-20T00:29:38;101398.06;;;16.50;90.74
65758;BME280;52495;52.208;5.158;2023-07-20T00:32:06;101394.84;;;16.42;91.28
65758;BME280;52495;52.208;5.158;2023-07-20T00:34:32;101391.25;;;16.46;91.33
65758;BME280;52495;52.208;5.158;2023-07-20T00:36:59;101386.13;;;16.43;91.22
65758;BME280;52495;52.208;5.158;2023-07-20T00:39:26;101383.78;;;16.35;91.63
65758;BME280;52495;52.208;5.158;2023-07-20T00:41:53;101381.88;;;16.41;91.59
65758;BME280;52495;52.208;5.158;2023-07-20T00:44:20;101387.28;;;16.34;91.71
65758;BME280;52495;52.208;5.158;2023-07-20T00:46:48;101391.16;;;16.22;92.77
65758;BME280;52495;52.208;5.158;2023-07-20T00:49:15;101389.31;;;16.26;92.57
65758;BME280;52495;52.208;5.158;2023-07-20T00:51:47;101386.84;;;16.21;92.92
65758;BME280;52495;52.208;5.158;2023-07-20T00:54:15;101384.50;;;16.14;93.55
65758;BME280;52495;52.208;5.158;2023-07-20T00:56:42;101391.19;;;16.21;93.17
65758;BME280;52495;52.208;5.158;2023-07-20T00:59:12;101383.13;;;16.29;92.94
65758;BME280;52495;52.208;5.158;2023-07-20T01:01:39;101383.38;;;16.21;93.19
65758;BME280;52495;52.208;5.158;2023-07-20T01:04:07;101386.38;;;16.08;94.33
65758;BME280;52495;52.208;5.158;2023-07-20T01:06:42;101379.00;;;15.95;96.02
65758;BME280;52495;52.208;5.158;2023-07-20T01:09:14;101381.41;;;16.01;95.85
65758;BME280;52495;52.208;5.158;2023-07-20T01:11:49;101385.66;;;16.03;95.61
65758;BME280;52495;52.208;5.158;2023-07-20T01:14:21;101382.81;;;16.11;95.09
65758;BME280;52495;52.208;5.158;2023-07-20T01:16:51;101387.03;;;16.15;95.15
65758;BME280;52495;52.208;5.158;2023-07-20T01:19:20;101385.97;;;16.22;94.66
65758;BME280;52495;52.208;5.158;2023-07-20T01:21:51;101387.59;;;16.25;94.53
65758;BME280;52495;52.208;5.158;2023-07-20T01:24:41;101380.44;;;16.32;92.73
65758;BME280;52495;52.208;5.158;2023-07-20T01:27:36;101392.84;;;16.23;92.84
65758;BME280;52495;52.208;5.158;2023-07-20T01:30:16;101389.66;;;16.15;92.96
65758;BME280;52495;52.208;5.158;2023-07-20T01:32:54;101382.41;;;15.97;94.55
65758;BME280;52495;52.208;5.158;2023-07-20T01:35:26;101387.72;;;15.93;94.70
65758;BME280;52495;52.208;5.158;2023-07-20T01:37:53;101386.78;;;15.96;95.00
65758;BME280;52495;52.208;5.158;2023-07-20T01:40:22;101392.22;;;15.88;95.42
65758;BME280;52495;52.208;5.158;2023-07-20T01:42:52;101387.09;;;15.85;95.65
65758;BME280;52495;52.208;5.158;2023-07-20T01:45:19;101392.16;;;15.90;95.39
65758;BME280;52495;52.208;5.158;2023-07-20T01:47:46;101398.47;;;15.81;96.15
65758;BME280;52495;52.208;5.158;2023-07-20T01:50:14;101397.53;;;15.85;95.67
65758;BME280;52495;52.208;5.158;2023-07-20T01:52:41;101383.53;;;15.88;95.34
65758;BME280;52495;52.208;5.158;2023-07-20T01:55:08;101389.63;;;15.88;95.83
65758;BME280;52495;52.208;5.158;2023-07-20T01:57:35;101393.81;;;15.92;95.65
65758;BME280;52495;52.208;5.158;2023-07-20T02:00:02;101389.50;;;15.91;95.71
65758;BME280;52495;52.208;5.158;2023-07-20T02:02:41;101394.53;;;15.98;95.55
65758;BME280;52495;52.208;5.158;2023-07-20T02:05:08;101402.53;;;15.91;95.38
65758;BME280;52495;52.208;5.158;2023-07-20T02:07:36;101397.31;;;15.91;95.50
65758;BME280;52495;52.208;5.158;2023-07-20T02:10:03;101397.97;;;15.98;94.67
65758;BME280;52495;52.208;5.158;2023-07-20T02:12:30;101398.34;;;15.87;95.02
65758;BME280;52495;52.208;5.158;2023-07-20T02:14:57;101390.66;;;15.81;95.75
65758;BME280;52495;52.208;5.158;2023-07-20T02:17:24;101391.41;;;15.86;95.54
65758;BME280;52495;52.208;5.158;2023-07-20T02:19:51;101392.09;;;15.91;95.45
65758;BME280;52495;52.208;5.158;2023-07-20T02:22:19;101388.53;;;15.96;94.75
65758;BME280;52495;52.208;5.158;2023-07-20T02:24:47;101394.53;;;15.98;93.89
65758;BME280;52495;52.208;5.158;2023-07-20T02:27:15;101389.41;;;15.95;93.21
65758;BME280;52495;52.208;5.158;2023-07-20T02:29:42;101393.72;;;15.96;92.59
65758;BME280;52495;52.208;5.158;2023-07-20T02:32:10;101393.78;;;15.94;92.07
65758;BME280;52495;52.208;5.158;2023-07-20T02:34:37;101393.81;;;15.92;91.66
65758;BME280;52495;52.208;5.158;2023-07-20T02:37:04;101397.31;;;15.91;91.20
65758;BME280;52495;52.208;5.158;2023-07-20T02:39:31;101398.28;;;15.89;90.69
65758;BME280;52495;52.208;5.158;2023-07-20T02:42:00;101401.72;;;15.89;90.49
65758;BME280;52495;52.208;5.158;2023-07-20T02:44:28;101400.94;;;15.87;90.08
65758;BME280;52495;52.208;5.158;2023-07-20T02:46:55;101397.53;;;15.85;89.68
65758;BME280;52495;52.208;5.158;2023-07-20T02:49:22;101398.41;;;15.83;89.32
65758;BME280;52495;52.208;5.158;2023-07-20T02:51:49;101398.53;;;15.80;89.28
65758;BME280;52495;52.208;5.158;2023-07-20T02:54:16;101405.53;;;15.77;89.08
65758;BME280;52495;52.208;5.158;2023-07-20T02:56:43;101413.38;;;15.76;88.90
65758;BME280;52495;52.208;5.158;2023-07-20T02:59:12;101415.22;;;15.72;88.51
65758;BME280;52495;52.208;5.158;2023-07-20T03:01:39;101411.81;;;15.70;88.33
65758;BME280;52495;52.208;5.158;2023-07-20T03:04:07;101418.91;;;15.65;88.15
65758;BME280;52495;52.208;5.158;2023-07-20T03:06:35;101423.34;;;15.61;88.11
65758;BME280;52495;52.208;5.158;2023-07-20T03:09:03;101422.63;;;15.56;87.72
65758;BME280;52495;52.208;5.158;2023-07-20T03:11:31;101428.72;;;15.55;87.56
65758;BME280;52495;52.208;5.158;2023-07-20T03:13:59;101426.22;;;15.52;87.90
65758;BME280;52495;52.208;5.158;2023-07-20T03:16:27;101428.91;;;15.49;87.61
65758;BME280;52495;52.208;5.158;2023-07-20T03:18:54;101424.75;;;15.43;87.70
65758;BME280;52495;52.208;5.158;2023-07-20T03:21:24;101431.81;;;15.38;87.91
65758;BME280;52495;52.208;5.158;2023-07-20T03:23:51;101426.69;;;15.35;88.12
65758;BME280;52495;52.208;5.158;2023-07-20T03:26:18;101435.44;;;15.32;88.21
65758;BME280;52495;52.208;5.158;2023-07-20T03:28:45;101433.72;;;15.31;87.95
65758;BME280;52495;52.208;5.158;2023-07-20T03:31:13;101437.22;;;15.30;87.92
65758;BME280;52495;52.208;5.158;2023-07-20T03:33:42;101435.53;;;15.29;87.83
65758;BME280;52495;52.208;5.158;2023-07-20T03:36:09;101436.41;;;15.28;87.74
65758;BME280;52495;52.208;5.158;2023-07-20T03:38:36;101427.88;;;15.23;87.41
65758;BME280;52495;52.208;5.158;2023-07-20T03:41:03;101435.72;;;15.22;87.42
65758;BME280;52495;52.208;5.158;2023-07-20T03:43:30;101433.16;;;15.20;87.25
65758;BME280;52495;52.208;5.158;2023-07-20T03:45:57;101433.22;;;15.18;87.40
65758;BME280;52495;52.208;5.158;2023-07-20T03:48:24;101434.16;;;15.16;87.54
65758;BME280;52495;52.208;5.158;2023-07-20T03:50:54;101437.66;;;15.15;87.58
65758;BME280;52495;52.208;5.158;2023-07-20T03:53:20;101436.78;;;15.14;87.36
65758;BME280;52495;52.208;5.158;2023-07-20T03:55:48;101440.25;;;15.15;87.30
65758;BME280;52495;52.208;5.158;2023-07-20T03:58:17;101442.78;;;15.18;86.99
65758;BME280;52495;52.208;5.158;2023-07-20T04:00:45;101438.47;;;15.17;87.01
65758;BME280;52495;52.208;5.158;2023-07-20T04:03:12;101448.88;;;15.17;86.76
65758;BME280;52495;52.208;5.158;2023-07-20T04:05:39;101448.88;;;15.15;86.58
65758;BME280;52495;52.208;5.158;2023-07-20T04:08:07;101442.03;;;15.13;86.74
65758;BME280;52495;52.208;5.158;2023-07-20T04:10:34;101446.38;;;15.12;87.24
65758;BME280;52495;52.208;5.158;2023-07-20T04:13:01;101448.97;;;15.12;87.90
65758;BME280;52495;52.208;5.158;2023-07-20T04:15:28;101453.28;;;15.13;88.01
65758;BME280;52495;52.208;5.158;2023-07-20T04:17:55;101453.28;;;15.13;88.57
65758;BME280;52495;52.208;5.158;2023-07-20T04:20:22;101452.38;;;15.16;88.55
65758;BME280;52495;52.208;5.158;2023-07-20T04:22:49;101455.84;;;15.15;88.75
65758;BME280;52495;52.208;5.158;2023-07-20T04:25:18;101453.25;;;15.15;88.97
65758;BME280;52495;52.208;5.158;2023-07-20T04:27:45;101455.84;;;15.15;89.06
65758;BME280;52495;52.208;5.158;2023-07-20T04:30:12;101462.84;;;15.13;89.12
65758;BME280;52495;52.208;5.158;2023-07-20T04:32:41;101458.47;;;15.13;89.51
65758;BME280;52495;52.208;5.158;2023-07-20T04:35:26;101465.38;;;15.14;89.58
65758;BME280;52495;52.208;5.158;2023-07-20T04:37:59;101466.22;;;15.16;89.83
65758;BME280;52495;52.208;5.158;2023-07-20T04:40:27;101467.03;;;15.18;90.31
65758;BME280;52495;52.208;5.158;2023-07-20T04:42:54;101469.63;;;15.18;90.64
65758;BME280;52495;52.208;5.158;2023-07-20T04:45:21;101466.94;;;15.22;91.07
65758;BME280;52495;52.208;5.158;2023-07-20T04:47:50;101470.31;;;15.25;90.99
65758;BME280;52495;52.208;5.158;2023-07-20T04:50:17;101475.44;;;15.28;91.37
65758;BME280;52495;52.208;5.158;2023-07-20T04:52:45;101474.47;;;15.32;91.11
65758;BME280;52495;52.208;5.158;2023-07-20T04:55:17;101480.44;;;15.36;91.30
65758;BME280;52495;52.208;5.158;2023-07-20T04:57:45;101470.84;;;15.38;91.23
65758;BME280;52495;52.208;5.158;2023-07-20T05:00:13;101468.16;;;15.41;91.60
65758;BME280;52495;52.208;5.158;2023-07-20T05:02:40;101471.72;;;15.37;91.44
65758;BME280;52495;52.208;5.158;2023-07-20T05:05:07;101473.16;;;15.49;90.89
65758;BME280;52495;52.208;5.158;2023-07-20T05:07:35;101474.38;;;15.36;91.75
65758;BME280;52495;52.208;5.158;2023-07-20T05:10:02;101468.19;;;15.40;90.90
65758;BME280;52495;52.208;5.158;2023-07-20T05:12:29;101468.91;;;15.45;90.74
65758;BME280;52495;52.208;5.158;2023-07-20T05:14:57;101474.00;;;15.50;90.60
65758;BME280;52495;52.208;5.158;2023-07-20T05:17:24;101479.84;;;15.58;90.00
65758;BME280;52495;52.208;5.158;2023-07-20T05:19:52;101473.53;;;15.67;89.29
65758;BME280;52495;52.208;5.158;2023-07-20T05:22:18;101478.53;;;15.73;88.78
65758;BME280;52495;52.208;5.158;2023-07-20T05:24:45;101480.16;;;15.77;88.39
65758;BME280;52495;52.208;5.158;2023-07-20T05:27:12;101474.75;;;15.86;87.88
65758;BME280;52495;52.208;5.158;2023-07-20T05:29:43;101472.97;;;15.88;86.91
65758;BME280;52495;52.208;5.158;2023-07-20T05:32:12;101476.44;;;15.87;86.49
65758;BME280;52495;52.208;5.158;2023-07-20T05:34:40;101475.41;;;15.93;85.41
65758;BME280;52495;52.208;5.158;2023-07-20T05:37:06;101475.84;;;15.77;85.24
65758;BME280;52495;52.208;5.158;2023-07-20T05:39:33;101476.41;;;15.89;85.04
65758;BME280;52495;52.208;5.158;2023-07-20T05:42:00;101476.84;;;16.03;84.28
65758;BME280;52495;52.208;5.158;2023-07-20T05:44:27;101481.78;;;16.13;82.46
65758;BME280;52495;52.208;5.158;2023-07-20T05:46:54;101477.34;;;16.15;81.49
65758;BME280;52495;52.208;5.158;2023-07-20T05:49:23;101477.50;;;16.10;81.56
65758;BME280;52495;52.208;5.158;2023-07-20T05:51:50;101477.59;;;16.07;81.73
65758;BME280;52495;52.208;5.158;2023-07-20T05:54:17;101474.81;;;16.13;81.14
65758;BME280;52495;52.208;5.158;2023-07-20T05:56:45;101474.91;;;16.10;81.30
65758;BME280;52495;52.208;5.158;2023-07-20T05:59:12;101480.91;;;16.12;81.25
65758;BME280;52495;52.208;5.158;2023-07-20T06:01:39;101476.44;;;16.17;81.25
65758;BME280;52495;52.208;5.158;2023-07-20T06:04:07;101479.84;;;16.19;81.42
65758;BME280;52495;52.208;5.158;2023-07-20T06:06:35;101476.75;;;16.35;80.11
65758;BME280;52495;52.208;5.158;2023-07-20T06:09:02;101479.31;;;16.36;79.86
65758;BME280;52495;52.208;5.158;2023-07-20T06:11:30;101474.75;;;16.43;78.86
65758;BME280;52495;52.208;5.158;2023-07-20T06:13:57;101485.31;;;16.38;79.49
65758;BME280;52495;52.208;5.158;2023-07-20T06:16:24;101484.50;;;16.38;78.73
65758;BME280;52495;52.208;5.158;2023-07-20T06:18:51;101494.91;;;16.38;77.20
65758;BME280;52495;52.208;5.158;2023-07-20T06:21:18;101484.91;;;16.52;76.98
65758;BME280;52495;52.208;5.158;2023-07-20T06:23:46;101492.50;;;16.59;76.99
65758;BME280;52495;52.208;5.158;2023-07-20T06:26:14;101493.94;;;16.69;76.48
65758;BME280;52495;52.208;5.158;2023-07-20T06:28:41;101490.53;;;16.65;76.11
65758;BME280;52495;52.208;5.158;2023-07-20T06:31:08;101498.69;;;16.83;74.59
65758;BME280;52495;52.208;5.158;2023-07-20T06:33:34;101488.94;;;16.88;74.21
65758;BME280;52495;52.208;5.158;2023-07-20T06:36:02;101491.41;;;16.93;74.39
65758;BME280;52495;52.208;5.158;2023-07-20T06:38:28;101485.13;;;17.00;74.09
65758;BME280;52495;52.208;5.158;2023-07-20T06:40:57;101493.94;;;16.96;74.37
65758;BME280;52495;52.208;5.158;2023-07-20T06:43:24;101488.16;;;16.86;73.58
65758;BME280;52495;52.208;5.158;2023-07-20T06:45:51;101495.63;;;16.98;73.13
65758;BME280;52495;52.208;5.158;2023-07-20T06:48:19;101502.16;;;17.10;72.07
65758;BME280;52495;52.208;5.158;2023-07-20T06:50:46;101508.16;;;17.12;69.74
65758;BME280;52495;52.208;5.158;2023-07-20T06:53:13;101504.09;;;17.05;70.66
65758;BME280;52495;52.208;5.158;2023-07-20T06:55:41;101512.47;;;17.15;70.66
65758;BME280;52495;52.208;5.158;2023-07-20T06:58:10;101507.00;;;17.21;70.73
65758;BME280;52495;52.208;5.158;2023-07-20T07:00:38;101505.03;;;17.28;68.15
65758;BME280;52495;52.208;5.158;2023-07-20T07:03:04;101505.66;;;17.35;67.11
65758;BME280;52495;52.208;5.158;2023-07-20T07:05:35;101504.50;;;17.43;66.83
65758;BME280;52495;52.208;5.158;2023-07-20T07:08:03;101502.38;;;17.55;66.03
65758;BME280;52495;52.208;5.158;2023-07-20T07:10:30;101510.66;;;17.66;65.67
65758;BME280;52495;52.208;5.158;2023-07-20T07:12:57;101514.31;;;17.86;65.31
65758;BME280;52495;52.208;5.158;2023-07-20T07:15:26;101515.94;;;17.88;64.83
65758;BME280;52495;52.208;5.158;2023-07-20T07:17:52;101504.28;;;17.97;64.41
65758;BME280;52495;52.208;5.158;2023-07-20T07:20:19;101508.41;;;18.04;63.77
65758;BME280;52495;52.208;5.158;2023-07-20T07:22:47;101505.56;;;18.11;63.08
65758;BME280;52495;52.208;5.158;2023-07-20T07:25:14;101502.59;;;18.20;62.67
65758;BME280;52495;52.208;5.158;2023-07-20T07:27:41;101501.50;;;18.26;60.12
65758;BME280;52495;52.208;5.158;2023-07-20T07:30:09;101505.16;;;18.22;60.13
65758;BME280;52495;52.208;5.158;2023-07-20T07:32:37;101502.06;;;18.34;60.20
65758;BME280;52495;52.208;5.158;2023-07-20T07:35:05;101505.09;;;18.23;60.16
65758;BME280;52495;52.208;5.158;2023-07-20T07:37:32;101499.81;;;18.25;60.07
65758;BME280;52495;52.208;5.158;2023-07-20T07:39:59;101507.47;;;18.29;60.18
65758;BME280;52495;52.208;5.158;2023-07-20T07:42:26;101504.72;;;18.32;60.39
65758;BME280;52495;52.208;5.158;2023-07-20T07:44:53;101512.03;;;18.46;59.12
65758;BME280;52495;52.208;5.158;2023-07-20T07:47:20;101518.66;;;18.55;57.11
65758;BME280;52495;52.208;5.158;2023-07-20T07:49:48;101516.84;;;18.57;56.69
65758;BME280;52495;52.208;5.158;2023-07-20T07:52:15;101512.81;;;18.71;54.41
65758;BME280;52495;52.208;5.158;2023-07-20T07:54:42;101517.00;;;18.75;54.57
65758;BME280;52495;52.208;5.158;2023-07-20T07:57:09;101514.59;;;18.70;55.92
65758;BME280;52495;52.208;5.158;2023-07-20T07:59:36;101523.19;;;18.72;56.21
65758;BME280;52495;52.208;5.158;2023-07-20T08:02:04;101526.16;;;18.85;54.88
65758;BME280;52495;52.208;5.158;2023-07-20T08:04:32;101521.66;;;18.89;55.00
65758;BME280;52495;52.208;5.158;2023-07-20T08:07:02;101510.16;;;18.93;53.08
65758;BME280;52495;52.208;5.158;2023-07-20T08:09:29;101510.91;;;18.96;52.50
65758;BME280;52495;52.208;5.158;2023-07-20T08:11:56;101515.88;;;19.03;52.82
65758;BME280;52495;52.208;5.158;2023-07-20T08:14:22;101517.97;;;19.15;53.04
65758;BME280;52495;52.208;5.158;2023-07-20T08:16:50;101510.41;;;19.30;53.86
65758;BME280;52495;52.208;5.158;2023-07-20T08:19:17;101507.63;;;19.33;53.32
65758;BME280;52495;52.208;5.158;2023-07-20T08:21:44;101510.91;;;19.17;53.23
65758;BME280;52495;52.208;5.158;2023-07-20T08:24:12;101503.47;;;19.29;54.18
65758;BME280;52495;52.208;5.158;2023-07-20T08:26:39;101505.09;;;19.31;54.02
65758;BME280;52495;52.208;5.158;2023-07-20T08:29:06;101507.59;;;19.34;52.41
65758;BME280;52495;52.208;5.158;2023-07-20T08:31:33;101510.78;;;19.41;52.74
65758;BME280;52495;52.208;5.158;2023-07-20T08:34:00;101507.81;;;19.49;52.18
65758;BME280;52495;52.208;5.158;2023-07-20T08:36:27;101513.06;;;19.49;51.35
65758;BME280;52495;52.208;5.158;2023-07-20T08:38:54;101511.84;;;19.56;51.71
65758;BME280;52495;52.208;5.158;2023-07-20T08:41:22;101515.25;;;19.58;52.72
65758;BME280;52495;52.208;5.158;2023-07-20T08:43:50;101518.44;;;19.65;53.12
65758;BME280;52495;52.208;5.158;2023-07-20T08:46:20;101510.06;;;19.77;52.02
65758;BME280;52495;52.208;5.158;2023-07-20T08:48:47;101510.53;;;19.85;52.53
65758;BME280;52495;52.208;5.158;2023-07-20T08:51:15;101509.25;;;19.96;52.71
65758;BME280;52495;52.208;5.158;2023-07-20T08:53:43;101510.44;;;19.89;50.78
65758;BME280;52495;52.208;5.158;2023-07-20T08:56:11;101517.31;;;19.91;50.45
65758;BME280;52495;52.208;5.158;2023-07-20T08:58:43;101520.84;;;19.90;49.98
65758;BME280;52495;52.208;5.158;2023-07-20T09:01:10;101518.81;;;19.97;50.15
65758;BME280;52495;52.208;5.158;2023-07-20T09:03:38;101517.94;;;19.96;49.74
65758;BME280;52495;52.208;5.158;2023-07-20T09:06:05;101514.63;;;20.12;49.84
65758;BME280;52495;52.208;5.158;2023-07-20T09:08:32;101517.44;;;20.26;49.27
65758;BME280;52495;52.208;5.158;2023-07-20T09:10:59;101508.75;;;20.07;47.67
65758;BME280;52495;52.208;5.158;2023-07-20T09:13:28;101516.13;;;19.98;47.67
65758;BME280;52495;52.208;5.158;2023-07-20T09:15:58;101512.50;;;20.01;47.20
65758;BME280;52495;52.208;5.158;2023-07-20T09:18:25;101517.94;;;20.15;47.30
65758;BME280;52495;52.208;5.158;2023-07-20T09:20:52;101511.25;;;20.27;47.14
65758;BME280;52495;52.208;5.158;2023-07-20T09:23:19;101514.94;;;20.42;46.90
65758;BME280;52495;52.208;5.158;2023-07-20T09:25:47;101509.03;;;20.56;45.68
65758;BME280;52495;52.208;5.158;2023-07-20T09:28:17;101506.22;;;20.59;45.71
65758;BME280;52495;52.208;5.158;2023-07-20T09:30:44;101509.00;;;20.75;45.56
65758;BME280;52495;52.208;5.158;2023-07-20T09:33:21;101518.88;;;20.88;43.02
65758;BME280;52495;52.208;5.158;2023-07-20T09:35:48;101507.53;;;21.05;44.21
65758;BME280;52495;52.208;5.158;2023-07-20T09:38:15;101505.81;;;21.21;44.26
65758;BME280;52495;52.208;5.158;2023-07-20T09:40:42;101505.66;;;21.42;44.11
65758;BME280;52495;52.208;5.158;2023-07-20T09:43:10;101500.66;;;21.53;44.10
65758;BME280;52495;52.208;5.158;2023-07-20T09:45:39;101499.19;;;21.65;44.14
65758;BME280;52495;52.208;5.158;2023-07-20T09:48:08;101507.25;;;21.78;43.78
65758;BME280;52495;52.208;5.158;2023-07-20T09:50:40;101498.56;;;21.94;43.72
65758;BME280;52495;52.208;5.158;2023-07-20T09:53:09;101497.00;;;22.06;42.71
65758;BME280;52495;52.208;5.158;2023-07-20T09:55:39;101499.41;;;22.10;43.05
65758;BME280;52495;52.208;5.158;2023-07-20T09:58:08;101493.00;;;22.14;43.30
65758;BME280;52495;52.208;5.158;2023-07-20T10:00:36;101495.22;;;22.22;43.08
65758;BME280;52495;52.208;5.158;2023-07-20T10:03:04;101496.84;;;22.25;43.26
65758;BME280;52495;52.208;5.158;2023-07-20T10:05:33;101487.50;;;22.03;43.75
65758;BME280;52495;52.208;5.158;2023-07-20T10:08:04;101485.56;;;22.07;42.43
65758;BME280;52495;52.208;5.158;2023-07-20T10:10:35;101492.25;;;22.12;40.73
65758;BME280;52495;52.208;5.158;2023-07-20T10:13:03;101489.38;;;22.01;41.85
65758;BME280;52495;52.208;5.158;2023-07-20T10:15:34;101486.41;;;21.91;42.83
65758;BME280;52495;52.208;5.158;2023-07-20T10:18:07;101483.34;;;21.99;43.01
65758;BME280;52495;52.208;5.158;2023-07-20T10:20:39;101489.97;;;21.74;43.10
65758;BME280;52495;52.208;5.158;2023-07-20T10:23:08;101483.69;;;21.77;43.61
65758;BME280;52495;52.208;5.158;2023-07-20T10:25:36;101475.38;;;21.85;43.58
65758;BME280;52495;52.208;5.158;2023-07-20T10:28:06;101480.06;;;21.95;43.48
65758;BME280;52495;52.208;5.158;2023-07-20T10:30:34;101476.38;;;21.98;43.24
65758;BME280;52495;52.208;5.158;2023-07-20T10:33:02;101474.78;;;22.11;43.63
65758;BME280;52495;52.208;5.158;2023-07-20T10:35:29;101474.53;;;22.16;43.71
65758;BME280;52495;52.208;5.158;2023-07-20T10:38:00;101470.59;;;22.23;43.61
65758;BME280;52495;52.208;5.158;2023-07-20T10:40:30;101469.16;;;22.34;42.94
65758;BME280;52495;52.208;5.158;2023-07-20T10:42:58;101473.75;;;22.14;41.72
65758;BME280;52495;52.208;5.158;2023-07-20T10:45:50;101479.97;;;22.13;41.00
65758;BME280;52495;52.208;5.158;2023-07-20T10:48:18;101471.78;;;22.34;41.92
65758;BME280;52495;52.208;5.158;2023-07-20T10:51:10;101475.28;;;22.50;41.87
65758;BME280;52495;52.208;5.158;2023-07-20T10:53:37;101480.19;;;22.40;41.93
65758;BME280;52495;52.208;5.158;2023-07-20T10:56:11;101472.97;;;22.60;42.12
65758;BME280;52495;52.208;5.158;2023-07-20T10:58:39;101468.56;;;22.75;42.17
65758;BME280;52495;52.208;5.158;2023-07-20T11:01:06;101459.69;;;22.92;41.74
65758;BME280;52495;52.208;5.158;2023-07-20T11:03:34;101470.13;;;23.08;41.80
65758;BME280;52495;52.208;5.158;2023-07-20T11:06:29;101461.22;;;23.11;41.53
65758;BME280;52495;52.208;5.158;2023-07-20T11:09:04;101461.53;;;23.21;41.60
65758;BME280;52495;52.208;5.158;2023-07-20T11:11:34;101461.41;;;23.37;42.36
65758;BME280;52495;52.208;5.158;2023-07-20T11:14:02;101457.19;;;23.34;42.25
65758;BME280;52495;52.208;5.158;2023-07-20T11:16:41;101458.00;;;23.20;42.36
65758;BME280;52495;52.208;5.158;2023-07-20T11:19:16;101458.59;;;23.25;42.61
65758;BME280;52495;52.208;5.158;2023-07-20T11:21:45;101453.16;;;23.43;42.24
65758;BME280;52495;52.208;5.158;2023-07-20T11:24:12;101452.47;;;23.54;42.44
65758;BME280;52495;52.208;5.158;2023-07-20T11:26:42;101448.16;;;23.53;41.96
65758;BME280;52495;52.208;5.158;2023-07-20T11:29:10;101448.13;;;23.24;41.74
65758;BME280;52495;52.208;5.158;2023-07-20T11:31:39;101453.16;;;23.28;41.95
65758;BME280;52495;52.208;5.158;2023-07-20T11:34:09;101454.94;;;23.28;41.96
65758;BME280;52495;52.208;5.158;2023-07-20T11:36:38;101450.41;;;23.30;42.18
65758;BME280;52495;52.208;5.158;2023-07-20T11:39:06;101442.31;;;23.47;42.39
65758;BME280;52495;52.208;5.158;2023-07-20T11:41:34;101434.47;;;23.60;41.87
65758;BME280;52495;52.208;5.158;2023-07-20T11:44:03;101431.56;;;23.65;41.41
65758;BME280;52495;52.208;5.158;2023-07-20T11:46:31;101435.63;;;23.56;40.59
65758;BME280;52495;52.208;5.158;2023-07-20T11:48:59;101442.69;;;23.41;40.68
65758;BME280;52495;52.208;5.158;2023-07-20T11:51:28;101436.41;;;22.70;41.70
65758;BME280;52495;52.208;5.158;2023-07-20T11:53:57;101439.16;;;22.83;41.79
65758;BME280;52495;52.208;5.158;2023-07-20T11:56:24;101439.44;;;22.78;42.40
65758;BME280;52495;52.208;5.158;2023-07-20T11:58:54;101433.81;;;22.84;42.12
65758;BME280;52495;52.208;5.158;2023-07-20T12:01:24;101431.81;;;22.88;42.14
65758;BME280;52495;52.208;5.158;2023-07-20T12:03:55;101428.91;;;23.07;42.36
65758;BME280;52495;52.208;5.158;2023-07-20T12:06:23;101435.19;;;23.21;42.29
65758;BME280;52495;52.208;5.158;2023-07-20T12:08:54;101423.50;;;23.25;41.88
65758;BME280;52495;52.208;5.158;2023-07-20T12:11:35;101429.72;;;23.38;42.05
65758;BME280;52495;52.208;5.158;2023-07-20T12:14:03;101422.31;;;23.58;41.25
65758;BME280;52495;52.208;5.158;2023-07-20T12:16:31;101421.56;;;23.70;40.75
65758;BME280;52495;52.208;5.158;2023-07-20T12:19:02;101418.03;;;23.57;40.93
65758;BME280;52495;52.208;5.158;2023-07-20T12:21:29;101409.56;;;23.52;41.02
65758;BME280;52495;52.208;5.158;2023-07-20T12:23:57;101423.28;;;23.13;41.98
65758;BME280;52495;52.208;5.158;2023-07-20T12:26:25;101420.94;;;23.09;42.55
65758;BME280;52495;52.208;5.158;2023-07-20T12:28:52;101423.94;;;23.02;42.97
65758;BME280;52495;52.208;5.158;2023-07-20T12:31:19;101426.50;;;23.04;42.61
65758;BME280;52495;52.208;5.158;2023-07-20T12:33:48;101415.00;;;23.19;42.84
65758;BME280;52495;52.208;5.158;2023-07-20T12:36:15;101414.38;;;23.45;42.84
65758;BME280;52495;52.208;5.158;2023-07-20T12:38:42;101408.88;;;23.62;42.38
65758;BME280;52495;52.208;5.158;2023-07-20T12:41:10;101412.03;;;23.82;41.94
65758;BME280;52495;52.208;5.158;2023-07-20T12:43:39;101400.09;;;24.04;41.99
65758;BME280;52495;52.208;5.158;2023-07-20T12:46:06;101412.78;;;24.12;41.70
65758;BME280;52495;52.208;5.158;2023-07-20T12:48:33;101413.22;;;24.18;41.15
65758;BME280;52495;52.208;5.158;2023-07-20T12:51:04;101411.03;;;24.25;40.95
65758;BME280;52495;52.208;5.158;2023-07-20T12:53:31;101412.00;;;24.37;41.14
65758;BME280;52495;52.208;5.158;2023-07-20T12:55:58;101406.13;;;24.46;41.25